Time;durP1;ratioP1;P1;durP2;ratioP2;P2;SDS_P1;SDS_P2;PMS_P1;PMS_P2;Temp;Humidity;BMP_temperature;BMP_pressure;BME280_temperature;BME280_humidity;BME280_pressure;Samples;Min_cycle;Max_cycle;Signal;HPM_P1;HPM_P2
2022/08/24 00:02:04;;;;;;;;;;;;;;;;;;5038336;28;20381;-53
2022/08/24 00:04:30;;;;;;;;;;;;;;;;;;5034826;28;19932;-51
2022/08/24 00:06:56;;;;;;;;;;;;;;;;;;5035372;28;19924;-61
2022/08/24 00:09:22;;;;;;;;;;;;;;;;;;5038363;28;20366;-52
2022/08/24 00:11:48;;;;;;;;;;;;;;;;;;5032837;28;19936;-54
2022/08/24 00:14:14;;;;;;;2.95;2.75;;;;;;;;;;5033335;28;19968;-50
2022/08/24 00:16:40;;;;;;;2.72;2.53;;;;;;;;;;5034780;28;20040;-55
2022/08/24 00:19:06;;;;;;;2.90;2.70;;;;;;;;;;5034520;28;20075;-53
2022/08/24 00:21:32;;;;;;;;;;;;;;;;;;5033122;28;20040;-53
2022/08/24 00:23:58;;;;;;;;;;;;;;;;;;5031969;28;19928;-56
2022/08/24 00:26:24;;;;;;;;;;;;;;;;;;5018413;28;19921;-57
2022/08/24 00:28:50;;;;;;;;;;;;;;;;;;5039237;28;20409;-56
2022/08/24 00:31:16;;;;;;;;;;;;;;;;;;5036687;28;20259;-53
2022/08/24 00:33:42;;;;;;;2.97;2.78;;;;;;;;;;5017357;28;19920;-53
2022/08/24 00:36:08;;;;;;;3.00;2.80;;;;;;;;;;5035803;28;20408;-51
2022/08/24 00:38:35;;;;;;;2.50;2.33;;;;;;;;;;5035421;28;20044;-55
2022/08/24 00:41:01;;;;;;;2.15;2.05;;;;;;;;;;5038659;28;20052;-57
2022/08/24 00:43:28;;;;;;;2.22;2.13;;;;;;;;;;5038588;28;20536;-58
2022/08/24 00:45:53;;;;;;;2.67;2.47;;;;;;;;;;5039368;28;20045;-53
2022/08/24 00:48:23;;;;;;;2.97;2.78;;;;;;;;;;5037252;28;20191;-55
2022/08/24 00:50:49;;;;;;;;;;;;;;;;;;5037445;28;20068;-52
2022/08/24 00:53:14;;;;;;;;;;;;;;;;;;5039427;28;19925;-56
2022/08/24 00:55:40;;;;;;;;;;;;;;;;;;5033007;28;19967;-52
2022/08/24 00:58:06;;;;;;;;;;;;;;;;;;5035456;28;19971;-55
2022/08/24 01:00:32;;;;;;;;;;;;;;;;;;5034272;28;20319;-50
2022/08/24 01:03:00;;;;;;;;;;;;;;;;;;5041450;28;20389;-58
2022/08/24 01:05:26;;;;;;;;;;;;;;;;;;5037218;28;19924;-55
2022/08/24 01:07:52;;;;;;;;;;;;;;;;;;5038872;28;20396;-51
2022/08/24 01:10:18;;;;;;;;;;;;;;;;;;5037640;28;20011;-53
2022/08/24 01:12:44;;;;;;;;;;;;;;;;;;5038908;28;19929;-49
2022/08/24 01:15:10;;;;;;;2.10;2.00;;;;;;;;;;5022072;28;19960;-55
2022/08/24 01:20:25;;;;;;;2.63;2.42;;;;;;;;;;5034913;28;20045;-57
2022/08/24 01:22:54;;;;;;;2.40;2.28;;;;;;;;;;5039115;28;20218;-52
2022/08/24 01:25:20;;;;;;;;;;;;;;;;;;5038473;28;19939;-57
2022/08/24 01:27:46;;;;;;;;;;;;;;;;;;5037582;28;19925;-59
2022/08/24 01:30:12;;;;;;;;;;;;;;;;;;5037157;28;19927;-53
2022/08/24 01:32:38;;;;;;;;;;;;;;;;;;5031600;28;19925;-55
2022/08/24 01:35:04;;;;;;;;;;;;;;;;;;5035722;28;19921;-56
2022/08/24 01:37:31;;;;;;;;;;;;;;;;;;5037663;28;19933;-54
2022/08/24 01:39:57;;;;;;;;;;;;;;;;;;5036708;28;20373;-60
2022/08/24 01:42:25;;;;;;;;;;;;;;;;;;5034520;28;19968;-61
2022/08/24 01:44:51;;;;;;;2.17;2.08;;;;;;;;;;5037485;28;19925;-53
2022/08/24 01:47:17;;;;;;;2.20;2.10;;;;;;;;;;5034504;28;20120;-55
2022/08/24 01:49:46;;;;;;;4.43;1.83;;;;;;;;;;5036428;28;20127;-52
2022/08/24 01:52:15;;;;;;;1.63;1.52;;;;;;;;;;5036283;28;20494;-57
2022/08/24 01:54:41;;;;;;;;;;;;;;;;;;5036921;28;20072;-54
2022/08/24 01:57:07;;;;;;;;;;;;;;;;;;5046552;28;19920;-54
2022/08/24 01:59:33;;;;;;;;;;;;;;;;;;5046326;28;20313;-52
2022/08/24 02:01:59;;;;;;;;;;;;;;;;;;5046919;28;19975;-56
2022/08/24 02:04:25;;;;;;;;;;;;;;;;;;5046921;28;19931;-54
2022/08/24 02:06:52;;;;;;;;;;;;;;;;;;5046276;28;19951;-57
2022/08/24 02:09:18;;;;;;;;;;;;;;;;;;5046367;28;19990;-54
2022/08/24 02:11:44;;;;;;;;;;;;;;;;;;5046130;28;19971;-55
2022/08/24 02:14:10;;;;;;;;;;;;;;;;;;5046732;28;20303;-53
2022/08/24 02:16:36;;;;;;;;;;;;;;;;;;5046640;28;19950;-52
2022/08/24 02:19:02;;;;;;;;;;;;;;;;;;5045784;28;20373;-55
2022/08/24 02:21:28;;;;;;;;;;;;;;;;;;5046591;28;19932;-50
2022/08/24 02:23:53;;;;;;;;;;;;;;;;;;5046615;28;19963;-53
2022/08/24 02:26:20;;;;;;;;;;;;;;;;;;5046317;28;19925;-51
2022/08/24 02:28:46;;;;;;;;;;;;;;;;;;5046178;28;19978;-59
2022/08/24 02:31:12;;;;;;;;;;;;;;;;;;5046534;28;20351;-52
2022/08/24 02:33:38;;;;;;;;;;;;;;;;;;5045711;28;19928;-53
2022/08/24 02:36:03;;;;;;;;;;;;;;;;;;5046052;28;19921;-50
2022/08/24 02:38:29;;;;;;;;;;;;;;;;;;5046188;28;19932;-58
2022/08/24 02:40:56;;;;;;;1.33;1.23;;;;;;;;;;5044776;28;19928;-50
2022/08/24 02:43:23;;;;;;;1.60;1.50;;;;;;;;;;5028486;28;20053;-58
2022/08/24 02:45:49;;;;;;;1.70;1.60;;;;;;;;;;5044673;28;20049;-50
2022/08/24 02:48:15;;;;;;;;;;;;;;;;;;5046237;28;20045;-54
2022/08/24 02:50:41;;;;;;;;;;;;;;;;;;5045933;28;20652;-53
2022/08/24 02:53:07;;;;;;;;;;;;;;;;;;5045399;28;19925;-55
2022/08/24 02:55:33;;;;;;;;;;;;;;;;;;5037035;28;19933;-52
2022/08/24 02:57:59;;;;;;;;;;;;;;;;;;5038117;28;19935;-57
2022/08/24 03:00:26;;;;;;;;;;;;;;;;;;5033869;28;20008;-56
2022/08/24 03:02:53;;;;;;;;;;;;;;;;;;5033904;28;19929;-54
2022/08/24 03:05:19;;;;;;;;;;;;;;;;;;5035663;28;19932;-55
2022/08/24 03:07:44;;;;;;;;;;;;;;;;;;5034806;28;19929;-60
2022/08/24 03:10:10;;;;;;;;;;;;;;;;;;5021953;28;20336;-57
2022/08/24 03:12:37;;;;;;;0.98;0.98;;;;;;;;;;5033720;28;20302;-50
2022/08/24 03:15:04;;;;;;;0.90;0.90;;;;;;;;;;5034569;28;20052;-51
2022/08/24 03:17:32;;;;;;;0.88;0.88;;;;;;;;;;5031872;28;20055;-50
2022/08/24 03:19:59;;;;;;;1.20;1.10;;;;;;;;;;5031689;28;20048;-53
2022/08/24 03:22:25;;;;;;;1.20;1.20;;;;;;;;;;5034385;28;20564;-53
2022/08/24 03:24:51;;;;;;;0.90;0.90;;;;;;;;;;5033874;28;20069;-55
2022/08/24 03:27:18;;;;;;;0.95;0.95;;;;;;;;;;5035386;28;20509;-53
2022/08/24 03:29:44;;;;;;;1.02;1.02;;;;;;;;;;5032760;28;20077;-52
2022/08/24 03:32:10;;;;;;;0.88;0.88;;;;;;;;;;5034599;28;20125;-56
2022/08/24 03:34:37;;;;;;;1.00;1.00;;;;;;;;;;5034031;28;20037;-52
2022/08/24 03:37:03;;;;;;;1.27;1.15;;;;;;;;;;5033872;28;20065;-52
2022/08/24 03:39:29;;;;;;;0.90;0.90;;;;;;;;;;5034414;28;20045;-56
2022/08/24 03:41:56;;;;;;;1.10;1.08;;;;;;;;;;5038512;28;20098;-53
2022/08/24 03:44:24;;;;;;;1.48;1.33;;;;;;;;;;5030826;28;20124;-54
2022/08/24 03:46:51;;;;;;;0.88;0.88;;;;;;;;;;5032619;28;20060;-52
2022/08/24 03:49:17;;;;;;;0.90;0.90;;;;;;;;;;5029955;28;20041;-52
2022/08/24 03:51:43;;;;;;;1.23;1.00;;;;;;;;;;5031767;28;20050;-56
2022/08/24 03:54:10;;;;;;;1.58;1.48;;;;;;;;;;5019170;28;20098;-51
2022/08/24 03:56:36;;;;;;;1.48;1.38;;;;;;;;;;5043830;28;20049;-52
2022/08/24 03:59:03;;;;;;;1.50;1.40;;;;;;;;;;5044653;28;20500;-55
2022/08/24 04:01:29;;;;;;;1.50;1.40;;;;;;;;;;5044689;28;20090;-49
2022/08/24 04:03:55;;;;;;;;;;;;;;;;;;5026401;28;20055;-55
2022/08/24 04:06:22;;;;;;;0.70;0.70;;;;;;;;;;5045238;28;20587;-55
2022/08/24 04:08:49;;;;;;;1.58;1.10;;;;;;;;;;5048125;28;20084;-51
2022/08/24 04:11:16;;;;;;;1.63;1.52;;;;;;;;;;5046817;28;20049;-54
2022/08/24 04:13:43;;;;;;;1.73;1.63;;;;;;;;;;5046419;28;20437;-52
2022/08/24 04:16:14;;;;;;;1.48;1.38;;;;;;;;;;5048224;28;20043;-52
2022/08/24 04:18:40;;;;;;;1.53;1.43;;;;;;;;;;5047746;28;20048;-52
2022/08/24 04:21:14;;;;;;;1.40;1.30;;;;;;;;;;5048112;28;20045;-52
2022/08/24 04:23:41;;;;;;;;;;;;;;;;;;5046100;28;20409;-55
2022/08/24 04:26:07;;;;;;;1.50;1.40;;;;;;;;;;5047423;28;20040;-56
2022/08/24 04:28:33;;;;;;;1.70;1.60;;;;;;;;;;5047806;28;20079;-54
2022/08/24 04:30:59;;;;;;;1.38;1.27;;;;;;;;;;5047982;28;20088;-53
2022/08/24 04:33:25;;;;;;;1.95;1.85;;;;;;;;;;5048145;28;20028;-53
2022/08/24 04:35:51;;;;;;;1.80;1.70;;;;;;;;;;5047561;28;20087;-52
2022/08/24 04:38:18;;;;;;;1.98;1.80;;;;;;;;;;5047630;28;20545;-56
2022/08/24 04:40:45;;;;;;;1.55;1.40;;;;;;;;;;5047881;28;20049;-51
2022/08/24 04:43:11;;;;;;;1.65;1.55;;;;;;;;;;5048016;28;20045;-53
2022/08/24 04:45:38;;;;;;;1.33;1.23;;;;;;;;;;5046123;28;20591;-54
2022/08/24 04:48:04;;;;;;;1.70;1.60;;;;;;;;;;5047676;28;20449;-55
2022/08/24 04:50:30;;;;;;;;;;;;;;;;;;5048541;28;19924;-53
2022/08/24 04:52:56;;;;;;;;;;;;;;;;;;5046934;28;19921;-55
2022/08/24 04:55:22;;;;;;;;;;;;;;;;;;5048738;28;19924;-52
2022/08/24 04:57:48;;;;;;;;;;;;;;;;;;5047608;28;19927;-54
2022/08/24 05:00:14;;;;;;;;;;;;;;;;;;5047759;28;20483;-49
2022/08/24 05:02:40;;;;;;;;;;;;;;;;;;5047872;28;19978;-55
2022/08/24 05:05:06;;;;;;;;;;;;;;;;;;5047991;28;19924;-52
2022/08/24 05:07:32;;;;;;;;;;;;;;;;;;5047366;28;20061;-55
2022/08/24 05:09:58;;;;;;;;;;;;;;;;;;5047421;28;19921;-54
2022/08/24 05:12:24;;;;;;;;;;;;;;;;;;5030708;28;20015;-54
2022/08/24 05:14:50;;;;;;;;;;;;;;;;;;5046681;28;20003;-54
2022/08/24 05:17:15;;;;;;;;;;;;;;;;;;5047836;28;20297;-54
2022/08/24 05:19:42;;;;;;;;;;;;;;;;;;5047563;28;19928;-53
2022/08/24 05:22:08;;;;;;;;;;;;;;;;;;5045973;28;20328;-50
2022/08/24 05:24:34;;;;;;;;;;;;;;;;;;5047587;28;19931;-60
2022/08/24 05:27:00;;;;;;;;;;;;;;;;;;5047666;28;19959;-53
2022/08/24 05:29:26;;;;;;;;;;;;;;;;;;5047791;28;20023;-50
2022/08/24 05:31:53;;;;;;;;;;;;;;;;;;5047532;28;19921;-52
2022/08/24 05:34:19;;;;;;;;;;;;;;;;;;5047894;28;19928;-52
2022/08/24 05:36:45;;;;;;;;;;;;;;;;;;5046549;28;19982;-61
2022/08/24 05:39:10;;;;;;;;;;;;;;;;;;5047375;28;19966;-53
2022/08/24 05:41:36;;;;;;;;;;;;;;;;;;5028645;28;19927;-50
2022/08/24 05:44:02;;;;;;;;;;;;;;;;;;5046021;28;20074;-52
2022/08/24 05:46:30;;;;;;;;;;;;;;;;;;5044473;28;19924;-57
2022/08/24 05:48:56;;;;;;;;;;;;;;;;;;5046693;28;20011;-54
2022/08/24 05:51:22;;;;;;;;;;;;;;;;;;5047848;28;19920;-49
2022/08/24 05:53:48;;;;;;;;;;;;;;;;;;5046615;28;19943;-56
2022/08/24 05:56:14;;;;;;;;;;;;;;;;;;5039145;28;19921;-53
2022/08/24 05:58:40;;;;;;;;;;;;;;;;;;5029438;28;20389;-56
2022/08/24 06:01:06;;;;;;;;;;;;;;;;;;5034280;28;19936;-55
2022/08/24 06:03:32;;;;;;;;;;;;;;;;;;5030661;28;19944;-54
2022/08/24 06:05:58;;;;;;;;;;;;;;;;;;5034554;28;20374;-54
2022/08/24 06:08:23;;;;;;;;;;;;;;;;;;5032984;28;19925;-55
2022/08/24 06:10:49;;;;;;;;;;;;;;;;;;5035898;28;19931;-54
2022/08/24 06:13:15;;;;;;;;;;;;;;;;;;5038873;28;19947;-54
2022/08/24 06:15:41;;;;;;;;;;;;;;;;;;5034516;28;19974;-53
2022/08/24 06:18:07;;;;;;;;;;;;;;;;;;5035486;28;19920;-55
2022/08/24 06:20:33;;;;;;;;;;;;;;;;;;5036052;28;19979;-49
2022/08/24 06:22:59;;;;;;;;;;;;;;;;;;5033742;28;20469;-53
2022/08/24 06:28:10;;;;;;;;;;;;;;;;;;5034670;28;19925;-54
2022/08/24 06:30:36;;;;;;;;;;;;;;;;;;5032146;28;19928;-58
2022/08/24 06:33:02;;;;;;;;;;;;;;;;;;5038574;28;19924;-52
2022/08/24 06:35:28;;;;;;;;;;;;;;;;;;5036933;28;19925;-55
2022/08/24 06:37:54;;;;;;;;;;;;;;;;;;5034825;28;20289;-52
2022/08/24 06:40:20;;;;;;;;;;;;;;;;;;5036475;28;19924;-55
2022/08/24 06:42:46;;;;;;;;;;;;;;;;;;5036738;28;19924;-59
2022/08/24 06:45:11;;;;;;;;;;;;;;;;;;5026576;28;19931;-58
2022/08/24 06:47:37;;;;;;;;;;;;;;;;;;5018401;28;20400;-53
2022/08/24 06:50:03;;;;;;;;;;;;;;;;;;5025933;28;19921;-55
2022/08/24 06:52:30;;;;;;;0.90;0.90;;;;;;;;;;5027679;28;20110;-53
2022/08/24 06:54:56;;;;;;;;;;;;;;;;;;5035619;28;19933;-53
2022/08/24 06:57:22;;;;;;;;;;;;;;;;;;5038948;28;20397;-54
2022/08/24 06:59:48;;;;;;;;;;;;;;;;;;5039213;28;20187;-50
2022/08/24 07:02:17;;;;;;;;;;;;;;;;;;5034048;28;20321;-55
2022/08/24 07:04:43;;;;;;;;;;;;;;;;;;5037707;28;19928;-53
2022/08/24 07:07:09;;;;;;;;;;;;;;;;;;5030869;28;19928;-55
2022/08/24 07:09:35;;;;;;;1.50;1.40;;;;;;;;;;5026728;28;19925;-51
2022/08/24 07:12:01;;;;;;;1.70;1.60;;;;;;;;;;5025970;28;20045;-53
2022/08/24 07:14:27;;;;;;;1.80;1.70;;;;;;;;;;5045139;28;20056;-55
2022/08/24 07:16:53;;;;;;;1.92;1.83;;;;;;;;;;5046260;28;20513;-52
2022/08/24 07:19:19;;;;;;;1.88;1.77;;;;;;;;;;5046104;28;20037;-50
2022/08/24 07:21:45;;;;;;;1.17;1.17;;;;;;;;;;5045268;28;20067;-60
2022/08/24 07:24:11;;;;;;;1.60;1.50;;;;;;;;;;5028025;28;20136;-59
2022/08/24 07:26:38;;;;;;;1.67;1.58;;;;;;;;;;5038788;28;20044;-53
2022/08/24 07:29:05;;;;;;;2.40;2.30;;;;;;;;;;5014233;28;21040;-53
2022/08/24 07:31:32;;;;;;;1.65;1.55;;;;;;;;;;5036735;28;20049;-58
2022/08/24 07:33:58;;;;;;;1.00;1.00;;;;;;;;;;5043903;28;20069;-55
2022/08/24 07:36:24;;;;;;;0.93;0.93;;;;;;;;;;5034505;28;20516;-55
2022/08/24 07:38:51;;;;;;;1.00;1.00;;;;;;;;;;4999079;28;20057;-55
2022/08/24 07:41:17;;;;;;;1.92;1.83;;;;;;;;;;5029550;28;20045;-53
2022/08/24 07:43:45;;;;;;;3.25;2.95;;;;;;;;;;5040561;28;20115;-57
2022/08/24 07:46:12;;;;;;;1.67;1.57;;;;;;;;;;5028064;28;20045;-53
2022/08/24 07:48:38;;;;;;;2.22;2.03;;;;;;;;;;5023434;28;20047;-53
2022/08/24 07:51:11;;;;;;;1.08;1.08;;;;;;;;;;5024935;28;20073;-55
2022/08/24 07:53:37;;;;;;;4.47;1.85;;;;;;;;;;5029788;28;20046;-58
2022/08/24 07:56:04;;;;;;;1.83;1.65;;;;;;;;;;5030599;28;20206;-52
2022/08/24 07:58:30;;;;;;;1.70;1.60;;;;;;;;;;5041387;28;20045;-56
2022/08/24 08:00:57;;;;;;;2.35;2.20;;;;;;;;;;5044613;28;20045;-54
2022/08/24 08:03:25;;;;;;;1.88;1.73;;;;;;;;;;5044648;28;20045;-56
2022/08/24 08:05:58;;;;;;;4.78;2.80;;;;;;;;;;5044238;28;20509;-55
2022/08/24 08:08:24;;;;;;;2.08;1.98;;;;;;;;;;5045606;28;20087;-53
2022/08/24 08:10:50;;;;;;;1.63;1.52;;;;;;;;;;5043499;28;20124;-55
2022/08/24 08:13:16;;;;;;;1.25;1.15;;;;;;;;;;5044732;28;20461;-57
2022/08/24 08:15:42;;;;;;;1.23;1.20;;;;;;;;;;5044727;28;20652;-53
2022/08/24 08:18:08;;;;;;;1.42;1.33;;;;;;;;;;5044108;28;20048;-54
2022/08/24 08:20:34;;;;;;;1.85;1.75;;;;;;;;;;5044901;28;20120;-50
2022/08/24 08:25:49;;;;;;;1.60;1.50;;;;;;;;;;5044211;28;20052;-60
2022/08/24 08:28:15;;;;;;;1.00;1.00;;;;;;;;;;5044296;28;20049;-53
2022/08/24 08:30:41;;;;;;;2.40;1.75;;;;;;;;;;5035302;28;20052;-53
2022/08/24 08:33:07;;;;;;;1.90;1.80;;;;;;;;;;5027750;28;20052;-56
2022/08/24 08:35:34;;;;;;;2.00;1.90;;;;;;;;;;5027972;28;20046;-54
2022/08/24 08:38:00;;;;;;;3.03;2.72;;;;;;;;;;5041918;28;20764;-54
2022/08/24 08:40:47;;;;;;;2.47;2.28;;;;;;;;;;5045057;28;20041;-56
2022/08/24 08:43:28;;;;;;;3.03;2.33;;;;;;;;;;5044640;28;20095;-56
2022/08/24 08:45:57;;;;;;;2.88;2.70;;;;;;;;;;5042862;28;20124;-57
2022/08/24 08:48:46;;;;;;;2.35;2.15;;;;;;;;;;5044874;28;20077;-52
2022/08/24 08:51:30;;;;;;;2.67;1.88;;;;;;;;;;5044401;28;20106;-53
2022/08/24 08:54:02;;;;;;;4.85;2.97;;;;;;;;;;5045687;28;20501;-61
2022/08/24 08:56:28;;;;;;;;;;;;;;;;;;5047163;28;20049;-52
2022/08/24 08:59:00;;;;;;;1.63;1.50;;;;;;;;;;5042314;28;19925;-54
2022/08/24 09:01:45;;;;;;;1.13;1.02;;;;;;;;;;5048437;28;20090;-59
2022/08/24 09:04:17;;;;;;;1.70;1.60;;;;;;;;;;5045731;28;20048;-52
2022/08/24 09:06:52;;;;;;;1.25;1.15;;;;;;;;;;5047027;28;20052;-54
2022/08/24 09:09:25;;;;;;;1.73;1.63;;;;;;;;;;5047475;28;20091;-53
2022/08/24 09:12:11;;;;;;;1.73;1.63;;;;;;;;;;5046578;28;20045;-53
2022/08/24 09:14:56;;;;;;;2.17;1.75;;;;;;;;;;5043649;28;20439;-53
2022/08/24 09:17:48;;;;;;;1.88;1.52;;;;;;;;;;5046662;28;20077;-52
2022/08/24 09:20:14;;;;;;;;;;;;;;;;;;5042951;28;20071;-53
2022/08/24 09:22:42;;;;;;;3.15;1.92;;;;;;;;;;5047306;28;20282;-54
2022/08/24 09:25:25;;;;;;;1.30;1.20;;;;;;;;;;5047237;28;20533;-53
2022/08/24 09:28:02;;;;;;;1.20;1.10;;;;;;;;;;5044653;28;20693;-52
2022/08/24 09:30:38;;;;;;;0.98;0.98;;;;;;;;;;5047341;28;20029;-55
2022/08/24 09:33:08;;;;;;;1.50;1.40;;;;;;;;;;5047261;28;20037;-53
2022/08/24 09:35:49;;;;;;;2.67;2.35;;;;;;;;;;5046410;28;20056;-54
2022/08/24 09:38:34;;;;;;;2.17;1.40;;;;;;;;;;5047327;28;20041;-55
2022/08/24 09:41:23;;;;;;;1.55;1.35;;;;;;;;;;5045801;28;20646;-58
2022/08/24 09:43:49;;;;;;;1.90;1.58;;;;;;;;;;4999114;28;20061;-57
2022/08/24 09:46:43;;;;;;;1.75;1.52;;;;;;;;;;5047198;28;20048;-55
2022/08/24 09:49:25;;;;;;;1.60;1.40;;;;;;;;;;5037004;28;20569;-53
2022/08/24 09:52:10;;;;;;;1.60;1.50;;;;;;;;;;5032241;28;20041;-53
2022/08/24 09:54:36;;;;;;;1.70;1.48;;;;;;;;;;5030750;28;20052;-57
2022/08/24 09:57:11;;;;;;;2.95;1.70;;;;;;;;;;5034029;28;20237;-55
2022/08/24 09:59:55;;;;;;;1.17;1.08;;;;;;;;;;5043495;28;21204;-56
2022/08/24 10:02:36;;;;;;;2.00;1.10;;;;;;;;;;5022837;28;20081;-53
2022/08/24 10:05:19;;;;;;;1.58;1.30;;;;;;;;;;5029424;28;20489;-54
2022/08/24 10:08:03;;;;;;;1.50;1.40;;;;;;;;;;5047059;28;20077;-56
2022/08/24 10:10:29;;;;;;;1.50;1.40;;;;;;;;;;5046771;28;20045;-57
2022/08/24 10:13:02;;;;;;;1.52;1.40;;;;;;;;;;5047222;28;20526;-54
2022/08/24 10:15:28;;;;;;;1.42;1.30;;;;;;;;;;5047344;28;20055;-53
2022/08/24 10:18:03;;;;;;;1.92;1.30;;;;;;;;;;5046745;28;20044;-56
2022/08/24 10:20:41;;;;;;;2.80;1.63;;;;;;;;;;5047019;28;20055;-54
2022/08/24 10:23:25;;;;;;;1.50;1.40;;;;;;;;;;5046204;28;20401;-56
2022/08/24 10:26:01;;;;;;;1.30;1.20;;;;;;;;;;5046672;28;20137;-54
2022/08/24 10:28:35;;;;;;;1.15;1.10;;;;;;;;;;5046699;28;20041;-59
2022/08/24 10:31:06;;;;;;;1.85;1.05;;;;;;;;;;5043113;28;20044;-51
2022/08/24 10:33:38;;;;;;;1.17;1.08;;;;;;;;;;5046879;28;20124;-56
2022/08/24 10:36:27;;;;;;;2.00;0.82;;;;;;;;;;5046471;28;20191;-53
2022/08/24 10:42:01;;;;;;;0.90;0.90;;;;;;;;;;5020421;28;20036;-56
2022/08/24 10:44:27;;;;;;;2.25;0.95;;;;;;;;;;5044717;28;20037;-61
2022/08/24 10:46:53;;;;;;;0.70;0.70;;;;;;;;;;5045263;28;20147;-59
2022/08/24 10:49:25;;;;;;;0.68;0.68;;;;;;;;;;5044735;28;20044;-53
2022/08/24 10:52:00;;;;;;;0.70;0.70;;;;;;;;;;5043837;28;20064;-55
2022/08/24 10:54:26;;;;;;;1.05;0.80;;;;;;;;;;5045459;28;20053;-52
2022/08/24 10:56:58;;;;;;;0.90;0.90;;;;;;;;;;5045065;28;20057;-56
2022/08/24 10:59:47;;;;;;;0.65;0.65;;;;;;;;;;5039973;28;20504;-53
2022/08/24 11:02:28;;;;;;;1.30;1.20;;;;;;;;;;5032787;28;20044;-56
2022/08/24 11:04:57;;;;;;;1.40;1.02;;;;;;;;;;5043654;28;20049;-56
2022/08/24 11:07:23;;;;;;;2.05;0.95;;;;;;;;;;5043232;28;20048;-54
2022/08/24 11:09:51;;;;;;;1.30;1.05;;;;;;;;;;5044252;28;20153;-56
2022/08/24 11:12:27;;;;;;;1.45;1.13;;;;;;;;;;5044006;28;20048;-54
2022/08/24 11:14:55;;;;;;;1.42;0.98;;;;;;;;;;5044677;28;20629;-52
2022/08/24 11:17:23;;;;;;;1.30;1.20;;;;;;;;;;5044437;28;20087;-53
2022/08/24 11:19:50;;;;;;;1.35;0.90;;;;;;;;;;5043731;28;20410;-52
2022/08/24 11:22:32;;;;;;;0.85;0.85;;;;;;;;;;5044612;28;21603;-55
2022/08/24 11:25:00;;;;;;;0.70;0.70;;;;;;;;;;5036186;28;20044;-61
2022/08/24 11:27:27;;;;;;;0.75;0.75;;;;;;;;;;5037669;28;20498;-52
2022/08/24 11:29:54;;;;;;;0.70;0.70;;;;;;;;;;5045278;28;20048;-53
2022/08/24 11:32:42;;;;;;;0.70;0.70;;;;;;;;;;5045120;28;20044;-53
2022/08/24 11:35:25;;;;;;;1.95;0.60;;;;;;;;;;5044548;28;20080;-55
2022/08/24 11:37:53;;;;;;;1.85;0.60;;;;;;;;;;5044437;28;20539;-53
2022/08/24 11:40:21;;;;;;;0.88;0.68;;;;;;;;;;5044498;28;20126;-55
2022/08/24 11:42:50;;;;;;;0.80;0.80;;;;;;;;;;5044627;28;20147;-57
2022/08/24 11:45:27;;;;;;;1.27;0.57;;;;;;;;;;5044105;28;20048;-53
2022/08/24 11:48:15;;;;;;;1.00;0.75;;;;;;;;;;5044109;28;20080;-51
2022/08/24 11:50:47;;;;;;;1.25;0.80;;;;;;;;;;5044119;28;20048;-54
2022/08/24 11:53:19;;;;;;;0.50;0.50;;;;;;;;;;5043918;28;20404;-52
2022/08/24 11:55:55;;;;;;;0.73;0.50;;;;;;;;;;5034986;28;20061;-57
2022/08/24 11:58:35;;;;;;;0.40;0.40;;;;;;;;;;5034900;28;20045;-52
2022/08/24 12:01:04;;;;;;;0.38;0.38;;;;;;;;;;5025653;28;20046;-52
2022/08/24 12:03:49;;;;;;;0.50;0.50;;;;;;;;;;5027139;28;20052;-55
2022/08/24 12:06:18;;;;;;;0.40;0.40;;;;;;;;;;5034828;28;20085;-59
2022/08/24 12:08:48;;;;;;;0.47;0.47;;;;;;;;;;5032767;28;20469;-52
2022/08/24 12:11:33;;;;;;;0.50;0.50;;;;;;;;;;5037810;28;20050;-53
2022/08/24 12:14:03;;;;;;;0.30;0.30;;;;;;;;;;5029177;28;20110;-56
2022/08/24 12:16:33;;;;;;;0.40;0.40;;;;;;;;;;5016416;28;20088;-53
2022/08/24 12:19:02;;;;;;;0.47;0.40;;;;;;;;;;5008014;28;20045;-55
2022/08/24 12:21:31;;;;;;;0.50;0.50;;;;;;;;;;5021312;28;20437;-53
2022/08/24 12:24:17;;;;;;;0.50;0.40;;;;;;;;;;5029461;28;20055;-61
2022/08/24 12:26:45;;;;;;;0.70;0.70;;;;;;;;;;5038049;28;20045;-53
2022/08/24 12:29:11;;;;;;;0.93;0.60;;;;;;;;;;5031298;28;20045;-52
2022/08/24 12:31:38;;;;;;;0.63;0.63;;;;;;;;;;5046043;28;20409;-50
2022/08/24 12:34:19;;;;;;;0.63;0.63;;;;;;;;;;5040648;28;20045;-54
2022/08/24 12:37:00;;;;;;;0.50;0.50;;;;;;;;;;5035465;28;20065;-55
2022/08/24 12:39:29;;;;;;;0.50;0.50;;;;;;;;;;5036093;28;20049;-55
2022/08/24 12:41:58;;;;;;;1.65;0.40;;;;;;;;;;5029907;28;20672;-51
2022/08/24 12:44:28;;;;;;;0.70;0.50;;;;;;;;;;5020323;28;20046;-56
2022/08/24 12:46:55;;;;;;;0.57;0.45;;;;;;;;;;5016700;28;20061;-58
2022/08/24 12:49:21;;;;;;;0.30;0.30;;;;;;;;;;4997014;28;20049;-55
2022/08/24 12:51:53;;;;;;;0.30;0.30;;;;;;;;;;5016874;28;20536;-53
2022/08/24 12:54:38;;;;;;;0.30;0.30;;;;;;;;;;5019338;28;20506;-54
2022/08/24 12:57:04;;;;;;;0.25;0.25;;;;;;;;;;5035484;28;20049;-54
2022/08/24 12:59:30;;;;;;;0.40;0.40;;;;;;;;;;5037410;28;20098;-56
2022/08/24 13:02:04;;;;;;;0.13;0.13;;;;;;;;;;5035328;28;20056;-54
2022/08/24 13:04:39;;;;;;;0.20;0.20;;;;;;;;;;5036819;28;20132;-57
2022/08/24 13:07:05;;;;;;;0.20;0.20;;;;;;;;;;5041591;28;20504;-54
2022/08/24 13:09:36;;;;;;;0.20;0.20;;;;;;;;;;5046261;28;20041;-56
2022/08/24 13:12:29;;;;;;;0.20;0.20;;;;;;;;;;5041348;28;20382;-51
2022/08/24 13:15:15;;;;;;;0.50;0.50;;;;;;;;;;5008755;28;20107;-52
2022/08/24 13:17:41;;;;;;;0.73;0.60;;;;;;;;;;5044716;28;20037;-54
2022/08/24 13:20:16;;;;;;;0.50;0.50;;;;;;;;;;5044114;28;20041;-49
2022/08/24 13:22:47;;;;;;;0.40;0.40;;;;;;;;;;5044404;28;20452;-53
2022/08/24 13:25:40;;;;;;;0.47;0.47;;;;;;;;;;5046515;28;20094;-51
2022/08/24 13:28:08;;;;;;;0.70;0.52;;;;;;;;;;5040737;28;20056;-50
2022/08/24 13:30:37;;;;;;;0.90;0.55;;;;;;;;;;5044654;28;20123;-54
2022/08/24 13:33:05;;;;;;;0.68;0.63;;;;;;;;;;5035302;28;20037;-52
2022/08/24 13:35:34;;;;;;;0.98;0.85;;;;;;;;;;5039383;28;20400;-52
2022/08/24 13:38:20;;;;;;;1.00;0.90;;;;;;;;;;5027693;28;20045;-51
2022/08/24 13:40:48;;;;;;;0.68;0.68;;;;;;;;;;5027178;28;20092;-54
2022/08/24 13:43:19;;;;;;;1.65;0.80;;;;;;;;;;5028235;28;20111;-49
2022/08/24 13:46:02;;;;;;;0.60;0.60;;;;;;;;;;5027715;28;20722;-57
2022/08/24 13:48:31;;;;;;;0.82;0.80;;;;;;;;;;5009497;28;20409;-55
2022/08/24 13:51:00;;;;;;;0.40;0.40;;;;;;;;;;5027676;28;20045;-59
2022/08/24 13:53:35;;;;;;;0.73;0.70;;;;;;;;;;5028476;28;20045;-51
2022/08/24 13:56:19;;;;;;;1.15;0.88;;;;;;;;;;5026259;28;20049;-48
2022/08/24 13:59:04;;;;;;;0.80;0.80;;;;;;;;;;5027509;28;20042;-53
2022/08/24 14:01:33;;;;;;;0.50;0.50;;;;;;;;;;5027585;28;20051;-54
2022/08/24 14:04:07;;;;;;;0.88;0.88;;;;;;;;;;5039214;28;20045;-52
2022/08/24 14:06:51;;;;;;;0.60;0.60;;;;;;;;;;5033816;28;20049;-49
2022/08/24 14:09:40;;;;;;;0.45;0.38;;;;;;;;;;5026870;28;20368;-50
2022/08/24 14:12:24;;;;;;;0.50;0.50;;;;;;;;;;5027466;28;20053;-51
2022/08/24 14:14:54;;;;;;;0.40;0.40;;;;;;;;;;5026988;28;20536;-54
2022/08/24 14:20:10;;;;;;;0.50;0.40;;;;;;;;;;5027119;28;20057;-51
2022/08/24 14:22:40;;;;;;;0.52;0.40;;;;;;;;;;5026529;28;20103;-55
2022/08/24 14:25:21;;;;;;;0.63;0.63;;;;;;;;;;5027073;28;20088;-50
2022/08/24 14:28:10;;;;;;;0.28;0.28;;;;;;;;;;5026841;28;20134;-52
2022/08/24 14:30:39;;;;;;;0.43;0.40;;;;;;;;;;5026131;28;20076;-52
2022/08/24 14:33:10;;;;;;;0.80;0.80;;;;;;;;;;5026727;28;20521;-52
2022/08/24 14:35:41;;;;;;;0.60;0.60;;;;;;;;;;5026599;28;20107;-54
2022/08/24 14:38:23;;;;;;;3.75;0.50;;;;;;;;;;5025440;28;20057;-49
2022/08/24 14:40:49;;;;;;;1.33;0.75;;;;;;;;;;5031472;28;20049;-52
2022/08/24 14:43:30;;;;;;;1.75;1.05;;;;;;;;;;5046327;28;20049;-50
2022/08/24 14:46:07;;;;;;;1.13;1.10;;;;;;;;;;5026885;28;20050;-50
2022/08/24 14:48:39;;;;;;;1.63;1.52;;;;;;;;;;5026794;28;20409;-51
2022/08/24 14:51:24;;;;;;;1.80;1.70;;;;;;;;;;5024644;28;20502;-53
2022/08/24 14:53:57;;;;;;;2.85;2.15;;;;;;;;;;5025981;28;20046;-54
2022/08/24 14:56:38;;;;;;;1.80;1.70;;;;;;;;;;5036103;28;20305;-50
2022/08/24 14:59:07;;;;;;;0.82;0.82;;;;;;;;;;5042758;28;20053;-51
2022/08/24 15:01:46;;;;;;;0.80;0.80;;;;;;;;;;5038240;28;20045;-51
2022/08/24 15:04:30;;;;;;;1.80;1.70;;;;;;;;;;5035941;28;20128;-55
2022/08/24 15:07:16;;;;;;;1.10;1.00;;;;;;;;;;5034205;28;20049;-50
2022/08/24 15:09:43;;;;;;;1.52;1.10;;;;;;;;;;5044688;28;20052;-51
2022/08/24 15:12:42;;;;;;;2.75;2.55;;;;;;;;;;5043884;28;20106;-51
2022/08/24 15:15:23;;;;;;;2.08;1.95;;;;;;;;;;5011243;28;20057;-53
2022/08/24 15:18:02;;;;;;;3.13;2.67;;;;;;;;;;5041152;28;20087;-52
2022/08/24 15:20:31;;;;;;;2.85;2.42;;;;;;;;;;5044222;28;20508;-55
2022/08/24 15:23:07;;;;;;;3.17;1.60;;;;;;;;;;5045156;28;20045;-50
2022/08/24 15:25:35;;;;;;;1.30;1.20;;;;;;;;;;5044584;28;20040;-54
2022/08/24 15:28:22;;;;;;;1.23;1.13;;;;;;;;;;5037880;28;20496;-52
2022/08/24 15:31:05;;;;;;;1.73;1.40;;;;;;;;;;5024803;28;20052;-49
2022/08/24 15:33:31;;;;;;;7.95;1.30;;;;;;;;;;5025254;28;20052;-51
2022/08/24 15:36:11;;;;;;;1.90;1.20;;;;;;;;;;5025998;28;20406;-57
2022/08/24 15:38:38;;;;;;;1.60;1.50;;;;;;;;;;5043095;28;20175;-54
2022/08/24 15:41:25;;;;;;;1.05;1.05;;;;;;;;;;5043295;28;20045;-53
2022/08/24 15:43:58;;;;;;;1.42;1.33;;;;;;;;;;5043855;28;20052;-52
2022/08/24 15:46:34;;;;;;;1.45;1.35;;;;;;;;;;5045131;28;20041;-56
2022/08/24 15:49:07;;;;;;;1.42;1.25;;;;;;;;;;5043873;28;20047;-52
2022/08/24 15:51:42;;;;;;;1.25;1.08;;;;;;;;;;5044630;28;20044;-55